D/T METAR WX W/DIR W/SPE G/SPE TEMP DEWP
25/02/20 15:50 EGPL 251550Z 28004KT 240V310 9999 VCSH FEW010CB SCT016 05/02 Q0989 VCSH W (280°) 4.6mph 5°C 2°C
25/02/20 15:20 EGPL 251520Z 17001KT 9999 VCSH FEW010CB SCT020 BKN028 04/02 Q0989 VCSH S (170°) 1.2mph 4°C 2°C
25/02/20 14:50 EGPL 251450Z VRB01KT 9999 VCSH FEW008 SCT010CB 04/01 Q0989 VCSH N (0°) 1.2mph 4°C 1°C
25/02/20 14:20 EGPL 251420Z 33004KT 9999 VCSH FEW006 SCT010CB 04/02 Q0989 VCSH NNW (330°) 4.6mph 4°C 2°C
25/02/20 13:50 EGPL 251350Z 31009KT 9999 VCSH SCT010CB BKN034 03/01 Q0989 VCSH NW (310°) 10.4mph 3°C 1°C
25/02/20 13:20 EGPL 251320Z VRB01KT 9999 VCSH FEW016CB SCT038 04/01 Q0989 VCSH N (0°) 1.2mph 4°C 1°C
25/02/20 12:50 EGPL 251250Z 33002KT 9999 VCSH FEW018CB SCT030 04/01 Q0989 VCSH NNW (330°) 2.3mph 4°C 1°C
25/02/20 12:20 EGPL 251220Z 32005KT 9999 VCSH FEW018CB SCT030 04/02 Q0989 VCSH NW (320°) 5.8mph 4°C 2°C
25/02/20 11:50 EGPL 251150Z 35003KT 9999 VCSH FEW020CB SCT026 05/02 Q0989 VCSH N (350°) 3.5mph 5°C 2°C
25/02/20 11:20 EGPL 251120Z 27008KT 240V320 9999 VCSH FEW008 SCT020CB 05/01 Q0989 VCSH W (270°) 9.2mph 5°C 1°C
25/02/20 10:50 EGPL 251050Z 26004G14KT 210V290 9999 VCSH FEW008 SCT020CB 04/01 Q0989 VCSH W (260°) 4.6mph 16.1mph 4°C 1°C
25/02/20 10:20 EGPL 251020Z 22008KT 9999 VCSH FEW008 SCT016CB BKN027 04/01 Q0989 VCSH SW (220°) 9.2mph 4°C 1°C
25/02/20 09:50 EGPL 250950Z 24009KT 9999 -SHRA FEW006 SCT014CB BKN027 04/01 Q0990 -SHRA WSW (240°) 10.4mph 4°C 1°C
25/02/20 09:20 EGPL 250920Z 18006KT 9999 VCSH FEW010CB SCT030 03/02 Q0990 VCSH S (180°) 6.9mph 3°C 2°C
25/02/20 08:50 EGPL 250850Z 19006KT 9999 VCSH FEW006 SCT012CB 02/02 Q0990 VCSH S (190°) 6.9mph 2°C 2°C
25/02/20 08:20 EGPL 250820Z 17005KT 9999 VCSH FEW010 SCT025 BKN041 02/01 Q0990 VCSH S (170°) 5.8mph 2°C 1°C
25/02/20 07:50 EGPL 250750Z 21007KT 9999 VCSH BKN010 BKN014 03/01 Q0990 VCSH SSW (210°) 8.1mph 3°C 1°C
25/02/20 07:20 EGPL 250720Z 20003KT 9999 VCSH SCT014 BKN019 03/01 Q0991 VCSH SSW (200°) 3.5mph 3°C 1°C
25/02/20 06:50 EGPL 250650Z AUTO 20005KT 9999 FEW015/// SCT031/// BKN042/// 03/01 Q0991 SSW (200°) 5.8mph 3°C 1°C
25/02/20 06:20 EGPL 250620Z AUTO 21005KT 9999 NCD 03/01 Q0991 SSW (210°) 5.8mph 3°C 1°C
25/02/20 05:50 EGPL 250550Z AUTO 23005KT 9999 FEW018/// 03/01 Q0991 SW (230°) 5.8mph 3°C 1°C
25/02/20 04:50 EGPL 250450Z AUTO 30005KT 9999 FEW008/// SCT036/// 03/00 Q0992 WNW (300°) 5.8mph 3°C 0°C
25/02/20 04:20 EGPL 250420Z AUTO 27016KT 9999 -RA SCT023/// SCT040/// 04/01 Q0992 -RA W (270°) 18.4mph 4°C 1°C
25/02/20 03:50 EGPL 250350Z AUTO 18007KT 9999 SCT017/// BKN033/// 04/01 Q0992 S (180°) 8.1mph 4°C 1°C
25/02/20 03:20 EGPL 250320Z AUTO 19003KT 9999 SCT016/// SCT037/// 03/02 Q0992 S (190°) 3.5mph 3°C 2°C
25/02/20 02:50 EGPL 250250Z AUTO 21005KT 9999 FEW016/// 04/02 Q0993 SSW (210°) 5.8mph 4°C 2°C
25/02/20 02:20 EGPL 250220Z AUTO 22005KT 9999 NCD 04/02 Q0993 SW (220°) 5.8mph 4°C 2°C
25/02/20 01:50 EGPL 250150Z AUTO 26008KT 9999 SCT014/// BKN029/// BKN036/// 04/02 Q0994 W (260°) 9.2mph 4°C 2°C
25/02/20 01:20 EGPL 250120Z AUTO 27005KT 9999 SCT017/// BKN047/// 03/01 Q0994 W (270°) 5.8mph 3°C 1°C
25/02/20 00:50 EGPL 250050Z AUTO 24009KT 2900 -RA FEW012/// SCT017/// BKN021/// 03/01 Q0994 -RA WSW (240°) 10.4mph 3°C 1°C
25/02/20 00:20 EGPL 250020Z AUTO 24006KT 9999 BKN016/// 03/02 Q0995 WSW (240°) 6.9mph 3°C 2°C
24/02/20 23:50 EGPL 242350Z AUTO 22004KT 9999 BKN012/// 03/02 Q0995 SW (220°) 4.6mph 3°C 2°C
24/02/20 23:20 EGPL 242320Z AUTO 19004KT 9999 BKN011/// BKN017/// BKN023/// 02/01 Q0995 S (190°) 4.6mph 2°C 1°C
24/02/20 22:50 EGPL 242250Z AUTO 17003KT 9999 BKN013/// OVC044/// 02/01 Q0995 S (170°) 3.5mph 2°C 1°C
24/02/20 22:20 EGPL 242220Z AUTO 18003KT 9999 SCT014/// BKN034/// 01/01 Q0996 S (180°) 3.5mph 1°C 1°C
24/02/20 21:50 EGPL 242150Z AUTO 00000KT 9999 FEW022/// SCT047/// 01/01 Q0996 N (0°) 1°C 1°C
24/02/20 21:20 EGPL 242120Z AUTO 00000KT 9999 NCD 02/01 Q0996 N (0°) 2°C 1°C
24/02/20 20:50 EGPL 242050Z AUTO 00000KT 9999 NCD 01/01 Q0997 N (0°) 1°C 1°C
24/02/20 20:20 EGPL 242020Z AUTO 00000KT 9999 NCD 01/01 Q0997 N (0°) 1°C 1°C
24/02/20 19:50 EGPL 241950Z AUTO 03001KT 9999 NCD 01/00 Q0997 NNE (30°) 1.2mph 1°C 0°C
24/02/20 19:20 EGPL 241920Z AUTO 02003KT 9999 NCD 01/00 Q0997 NNE (20°) 3.5mph 1°C 0°C
24/02/20 18:50 EGPL 241850Z AUTO 35002KT 9999 BKN019/// 03/01 Q0997 N (350°) 2.3mph 3°C 1°C
24/02/20 18:20 EGPL 241820Z AUTO 00000KT 9999 SCT019/// SCT029/// BKN036/// 02/01 Q0998 N (0°) 2°C 1°C
24/02/20 17:50 EGPL 241750Z 03005KT 9999 SCT015 02/01 Q0998 NNE (30°) 5.8mph 2°C 1°C
24/02/20 17:20 EGPL 241720Z 06005KT 9999 FEW015 SCT020 04/01 Q0998 ENE (60°) 5.8mph 4°C 1°C
24/02/20 16:50 EGPL 241650Z 03005KT 9999 FEW015 BKN020 04/02 Q0998 NNE (30°) 5.8mph 4°C 2°C
24/02/20 16:20 EGPL 241620Z 03006KT 9999 FEW015 SCT022 04/02 Q0998 NNE (30°) 6.9mph 4°C 2°C
24/02/20 15:50 EGPL 241550Z 04008KT 9999 FEW016 BKN022 04/01 Q0998 NE (40°) 9.2mph 4°C 1°C